createdAt,value
2023-04-07T00:00:54.134Z,99423.77
2023-04-07T00:03:24.877Z,99426.73
2023-04-07T00:05:53.825Z,99425.77
2023-04-07T00:08:22.242Z,99427.90
2023-04-07T00:10:50.575Z,99425.94
2023-04-07T00:13:21.232Z,99433.00
2023-04-07T00:15:49.859Z,99428.77
2023-04-07T00:18:27.579Z,99429.35
2023-04-07T00:20:56.516Z,99434.36
2023-04-07T00:23:25.099Z,99431.39
2023-04-07T00:25:53.581Z,99434.77
2023-04-07T00:28:21.980Z,99437.98
2023-04-07T00:30:53.489Z,99435.56
2023-04-07T00:33:24.154Z,99438.54
2023-04-07T00:35:54.654Z,99442.55
2023-04-07T00:38:23.374Z,99443.22
2023-04-07T00:40:58.389Z,99445.35
2023-04-07T00:43:27.763Z,99440.02
2023-04-07T00:45:56.274Z,99444.78
2023-04-07T00:48:24.578Z,99447.98
2023-04-07T00:50:52.935Z,99452.52
2023-04-07T00:53:21.349Z,99451.17
2023-04-07T00:55:51.354Z,99451.94
2023-04-07T00:58:21.913Z,99457.94
2023-04-07T01:03:10.976Z,99459.67
2023-04-07T01:05:53.710Z,99462.50
2023-04-07T01:08:39.298Z,99462.47
2023-04-07T01:11:17.552Z,99464.33
2023-04-07T01:13:53.504Z,99462.74
2023-04-07T01:16:36.206Z,99469.70
2023-04-07T01:19:26.535Z,99467.61
2023-04-07T01:21:58.711Z,99477.30
2023-04-07T01:24:39.622Z,99475.39
2023-04-07T01:27:49.478Z,99477.14
2023-04-07T01:30:18.626Z,99483.03
2023-04-07T01:32:53.582Z,99482.31
2023-04-07T01:35:22.627Z,99488.28
2023-04-07T01:37:51.532Z,99486.48
2023-04-07T01:40:19.987Z,99489.48
2023-04-07T01:42:48.982Z,99489.95
2023-04-07T01:45:17.497Z,99490.36
2023-04-07T01:47:46.896Z,99492.41
2023-04-07T01:50:15.303Z,99491.33
2023-04-07T01:52:44.815Z,99494.14
2023-04-07T01:55:13.910Z,99489.57
2023-04-07T01:57:54.448Z,99491.65
2023-04-07T02:00:23.266Z,99492.47
2023-04-07T02:02:59.614Z,99497.29
2023-04-07T02:05:28.662Z,99499.36
2023-04-07T02:08:03.120Z,99501.82
2023-04-07T02:10:37.366Z,99504.16
2023-04-07T02:13:09.290Z,99505.67
2023-04-07T02:15:37.632Z,99515.15
2023-04-07T02:18:06.064Z,99513.44
2023-04-07T02:20:34.918Z,99514.83
2023-04-07T02:23:04.085Z,99513.40
2023-04-07T02:25:32.812Z,99510.51
2023-04-07T02:28:01.718Z,99511.08
2023-04-07T02:30:31.801Z,99516.44
2023-04-07T02:33:01.665Z,99518.83
2023-04-07T02:35:30.508Z,99520.14
2023-04-07T02:37:59.758Z,99519.45
2023-04-07T02:40:28.576Z,99524.98
2023-04-07T02:42:57.639Z,99526.48
2023-04-07T02:45:25.921Z,99529.23
2023-04-07T02:47:54.328Z,99533.17
2023-04-07T02:50:23.020Z,99535.70
2023-04-07T02:52:51.310Z,99539.24
2023-04-07T02:55:19.699Z,99542.27
2023-04-07T02:57:48.107Z,99546.70
2023-04-07T03:00:26.215Z,99542.99
2023-04-07T03:03:02.628Z,99546.43
2023-04-07T03:05:34.038Z,99550.52
2023-04-07T03:08:02.808Z,99553.91
2023-04-07T03:10:32.337Z,99560.48
2023-04-07T03:13:00.956Z,99563.80
2023-04-07T03:15:29.786Z,99565.20
2023-04-07T03:18:02.361Z,99566.54
2023-04-07T03:20:31.238Z,99571.48
2023-04-07T03:23:09.041Z,99570.46
2023-04-07T03:25:37.859Z,99573.21
2023-04-07T03:28:06.970Z,99580.13
2023-04-07T03:30:37.577Z,99582.16
2023-04-07T03:33:06.531Z,99585.05
2023-04-07T03:35:35.296Z,99587.31
2023-04-07T03:38:04.425Z,99595.64
2023-04-07T03:40:33.845Z,99598.55
2023-04-07T03:43:03.349Z,99597.77
2023-04-07T03:45:33.968Z,99604.42
2023-04-07T03:48:05.639Z,99605.34
2023-04-07T03:50:34.672Z,99607.85
2023-04-07T03:53:17.010Z,99612.64
2023-04-07T03:55:45.539Z,99614.83
2023-04-07T03:58:20.885Z,99615.28
2023-04-07T04:00:50.158Z,99620.95
2023-04-07T04:03:19.748Z,99625.67
2023-04-07T04:06:17.081Z,99627.83
2023-04-07T04:08:47.051Z,99631.75
2023-04-07T04:11:16.438Z,99640.16
2023-04-07T04:13:54.174Z,99638.04
2023-04-07T04:16:23.580Z,99638.20
2023-04-07T04:18:52.761Z,99639.56
2023-04-07T04:21:24.730Z,99641.29
2023-04-07T04:23:53.967Z,99641.88
2023-04-07T04:26:26.245Z,99645.31
2023-04-07T04:28:58.220Z,99646.06
2023-04-07T04:31:27.635Z,99648.73
2023-04-07T04:34:01.594Z,99652.94
2023-04-07T04:36:31.742Z,99655.38
2023-04-07T04:39:04.437Z,99655.61
2023-04-07T04:41:34.492Z,99659.25
2023-04-07T04:44:03.148Z,99658.95
2023-04-07T04:46:36.379Z,99663.52
2023-04-07T04:49:05.349Z,99667.63
2023-04-07T04:51:33.917Z,99672.86
2023-04-07T04:54:16.834Z,99672.04
2023-04-07T04:56:46.850Z,99673.98
2023-04-07T04:59:15.203Z,99678.79
2023-04-07T05:01:57.954Z,99685.34
2023-04-07T05:04:26.775Z,99685.88
2023-04-07T05:07:01.786Z,99686.30
2023-04-07T05:09:31.560Z,99688.03
2023-04-07T05:12:02.124Z,99693.58
2023-04-07T05:14:32.439Z,99694.56
2023-04-07T05:17:06.296Z,99696.20
2023-04-07T05:19:35.397Z,99695.55
2023-04-07T05:22:09.487Z,99698.30
2023-04-07T05:24:44.913Z,99702.84
2023-04-07T05:27:13.785Z,99704.05
2023-04-07T05:29:42.566Z,99708.10
2023-04-07T05:32:17.627Z,99711.86
2023-04-07T05:34:46.376Z,99713.26
2023-04-07T05:37:17.150Z,99716.20
2023-04-07T05:39:47.017Z,99723.81
2023-04-07T05:42:16.197Z,99724.71
2023-04-07T05:44:46.035Z,99723.02
2023-04-07T05:47:16.727Z,99726.64
2023-04-07T05:49:47.502Z,99726.13
2023-04-07T05:52:16.385Z,99729.79
2023-04-07T05:54:48.777Z,99731.96
2023-04-07T05:57:17.828Z,99733.45
2023-04-07T05:59:47.866Z,99737.08
2023-04-07T06:02:16.558Z,99739.63
2023-04-07T06:04:46.758Z,99740.11
2023-04-07T06:07:17.846Z,99745.11
2023-04-07T06:09:46.640Z,99748.42
2023-04-07T06:12:18.218Z,99747.65
2023-04-07T06:14:53.947Z,99754.41
2023-04-07T06:17:24.337Z,99756.06
2023-04-07T06:19:53.270Z,99759.23
2023-04-07T06:22:22.211Z,99761.05
2023-04-07T06:24:52.028Z,99764.52
2023-04-07T06:27:22.250Z,99768.75
2023-04-07T06:29:50.863Z,99769.54
2023-04-07T06:32:20.508Z,99771.17
2023-04-07T06:34:48.982Z,99775.08
2023-04-07T06:37:18.006Z,99775.71
2023-04-07T06:39:46.722Z,99780.20
2023-04-07T06:42:15.645Z,99784.06
2023-04-07T06:44:51.810Z,99783.87
2023-04-07T06:47:20.485Z,99782.95
2023-04-07T06:49:48.816Z,99789.23
2023-04-07T06:52:17.448Z,99794.45
2023-04-07T06:54:46.198Z,99794.48
2023-04-07T06:57:15.169Z,99793.61
2023-04-07T06:59:43.647Z,99797.50
2023-04-07T07:02:12.168Z,99797.32
2023-04-07T07:04:41.392Z,99794.90
2023-04-07T07:07:10.350Z,99800.77
2023-04-07T07:09:39.417Z,99798.46
2023-04-07T07:12:09.162Z,99800.20
2023-04-07T07:14:41.893Z,99797.73
2023-04-07T07:17:10.536Z,99800.30
2023-04-07T07:19:39.842Z,99799.91
2023-04-07T07:22:11.805Z,99805.23
2023-04-07T07:24:41.614Z,99807.97
2023-04-07T07:27:10.105Z,99808.94
2023-04-07T07:29:38.659Z,99810.23
2023-04-07T07:32:07.037Z,99811.27
2023-04-07T07:34:35.523Z,99815.27
2023-04-07T07:37:05.567Z,99811.31
2023-04-07T07:39:34.004Z,99812.23
2023-04-07T07:42:02.433Z,99813.22
2023-04-07T07:44:32.523Z,99812.67
2023-04-07T07:47:01.509Z,99812.98
2023-04-07T07:49:32.332Z,99812.68
2023-04-07T07:52:02.761Z,99811.16
2023-04-07T07:54:31.757Z,99812.05
2023-04-07T07:57:01.602Z,99814.42
2023-04-07T07:59:30.949Z,99815.05
2023-04-07T08:02:00.732Z,99813.86
2023-04-07T08:04:29.785Z,99813.83
2023-04-07T08:06:58.539Z,99813.32
2023-04-07T08:09:27.419Z,99813.73
2023-04-07T08:11:56.065Z,99813.61
2023-04-07T08:14:26.374Z,99815.96
2023-04-07T08:16:55.819Z,99815.53
2023-04-07T08:19:25.032Z,99816.77
2023-04-07T08:21:54.056Z,99818.67
2023-04-07T08:24:22.624Z,99824.66
2023-04-07T08:26:52.994Z,99824.55
2023-04-07T08:29:21.993Z,99822.05
2023-04-07T08:31:50.622Z,99826.75
2023-04-07T08:34:21.421Z,99825.06
2023-04-07T08:36:50.081Z,99827.61
2023-04-07T08:39:19.737Z,99822.83
2023-04-07T08:41:48.780Z,99824.25
2023-04-07T08:44:17.187Z,99823.90
2023-04-07T08:46:46.184Z,99821.94
2023-04-07T08:49:15.307Z,99819.54
2023-04-07T08:51:47.795Z,99824.46
2023-04-07T08:54:19.341Z,99821.02
2023-04-07T08:56:49.563Z,99821.58
2023-04-07T08:59:18.863Z,99821.33
2023-04-07T09:01:47.959Z,99823.46
2023-04-07T09:04:17.359Z,99823.33
2023-04-07T09:06:46.398Z,99828.27
2023-04-07T09:09:15.485Z,99828.02
2023-04-07T09:11:44.509Z,99825.55
2023-04-07T09:14:13.325Z,99825.41
2023-04-07T09:16:42.212Z,99826.88
2023-04-07T09:19:12.647Z,99830.19
2023-04-07T09:21:48.867Z,99838.64
2023-04-07T09:24:43.741Z,99833.93
2023-04-07T09:27:17.687Z,99833.37
2023-04-07T09:29:47.605Z,99834.14
2023-04-07T09:32:37.474Z,99830.97
2023-04-07T09:35:06.071Z,99829.83
2023-04-07T09:37:34.947Z,99832.40
2023-04-07T09:40:04.266Z,99832.56
2023-04-07T09:42:40.319Z,99833.96
2023-04-07T09:45:08.930Z,99829.92
2023-04-07T09:47:38.428Z,99827.79
2023-04-07T09:50:08.219Z,99828.65
2023-04-07T09:52:49.594Z,99830.31
2023-04-07T09:55:22.992Z,99828.70
2023-04-07T09:57:51.739Z,99825.61
2023-04-07T10:00:19.996Z,99821.33
2023-04-07T10:02:51.104Z,99821.81
2023-04-07T10:05:22.775Z,99823.64
2023-04-07T10:07:51.727Z,99821.40
2023-04-07T10:10:20.623Z,99819.67
2023-04-07T10:12:49.184Z,99826.06
2023-04-07T10:15:17.547Z,99825.23
2023-04-07T10:17:50.211Z,99829.61
2023-04-07T10:20:21.209Z,99828.27
2023-04-07T10:22:51.628Z,99830.89
2023-04-07T10:25:21.454Z,99833.97
2023-04-07T10:27:51.878Z,99834.58
2023-04-07T10:30:26.489Z,99835.94
2023-04-07T10:33:14.638Z,99835.73
2023-04-07T10:36:08.866Z,99834.95
2023-04-07T10:38:37.253Z,99837.44
2023-04-07T10:41:37.435Z,99839.11
2023-04-07T10:44:06.964Z,99839.98
2023-04-07T10:47:04.947Z,99842.26
2023-04-07T10:49:36.109Z,99843.21
2023-04-07T10:52:13.895Z,99838.98
2023-04-07T10:54:43.037Z,99840.73
2023-04-07T10:57:18.372Z,99840.88
2023-04-07T11:00:12.314Z,99837.20
2023-04-07T11:02:44.750Z,99838.61
2023-04-07T11:05:21.778Z,99838.83
2023-04-07T11:07:55.581Z,99838.30
2023-04-07T11:10:35.881Z,99835.09
2023-04-07T11:13:08.136Z,99835.20
2023-04-07T11:15:40.399Z,99833.80
2023-04-07T11:18:10.198Z,99831.71
2023-04-07T11:20:55.916Z,99830.20
2023-04-07T11:23:25.536Z,99829.70
2023-04-07T11:26:03.586Z,99827.88
2023-04-07T11:28:32.572Z,99825.35
2023-04-07T11:31:01.827Z,99825.67
2023-04-07T11:33:31.558Z,99823.10
2023-04-07T11:36:01.093Z,99824.32
2023-04-07T11:38:38.514Z,99822.19
2023-04-07T11:41:11.895Z,99823.70
2023-04-07T11:43:42.764Z,99821.86
2023-04-07T11:46:13.591Z,99820.39
2023-04-07T11:48:48.507Z,99820.73
2023-04-07T11:51:18.602Z,99818.80
2023-04-07T11:53:48.372Z,99817.34
2023-04-07T11:56:17.331Z,99816.23
2023-04-07T11:58:53.058Z,99814.38
2023-04-07T12:01:22.035Z,99814.31
2023-04-07T12:04:00.838Z,99814.49
2023-04-07T12:06:35.452Z,99815.52
2023-04-07T12:09:06.156Z,99811.98
2023-04-07T12:11:34.907Z,99809.05
2023-04-07T12:14:05.460Z,99806.23
2023-04-07T12:16:38.437Z,99804.40
2023-04-07T12:19:06.783Z,99807.48
2023-04-07T12:21:36.194Z,99806.27
2023-04-07T12:24:04.651Z,99808.39
2023-04-07T12:26:32.879Z,99804.48
2023-04-07T12:29:07.187Z,99807.36
2023-04-07T12:31:35.728Z,99803.80
2023-04-07T12:34:04.109Z,99803.55
2023-04-07T12:36:33.486Z,99803.58
2023-04-07T12:39:01.797Z,99799.34
2023-04-07T12:41:30.198Z,99799.05
2023-04-07T12:43:58.911Z,99800.05
2023-04-07T12:46:27.721Z,99798.20
2023-04-07T12:48:56.887Z,99802.31
2023-04-07T12:51:26.400Z,99799.39
2023-04-07T12:53:54.906Z,99799.51
2023-04-07T12:56:23.275Z,99799.41
2023-04-07T12:58:53.708Z,99797.26
2023-04-07T13:01:22.145Z,99796.76
2023-04-07T13:03:51.874Z,99796.41
2023-04-07T13:06:21.327Z,99794.92
2023-04-07T13:08:50.153Z,99798.16
2023-04-07T13:11:18.502Z,99796.53
2023-04-07T13:13:50.034Z,99793.71
2023-04-07T13:19:13.827Z,99795.33
2023-04-07T13:21:46.713Z,99792.85
2023-04-07T13:24:16.542Z,99795.45
2023-04-07T13:26:45.016Z,99793.17
2023-04-07T13:29:13.321Z,99794.98
2023-04-07T13:31:41.772Z,99788.66
2023-04-07T13:34:10.181Z,99789.26
2023-04-07T13:36:38.536Z,99786.13
2023-04-07T13:39:07.841Z,99787.96
2023-04-07T13:41:36.627Z,99793.36
2023-04-07T13:44:05.549Z,99789.64
2023-04-07T13:46:34.163Z,99788.45
2023-04-07T13:49:02.504Z,99786.60
2023-04-07T13:51:30.915Z,99791.73
2023-04-07T13:53:59.254Z,99788.26
2023-04-07T13:56:27.761Z,99787.58
2023-04-07T13:58:56.348Z,99790.13
2023-04-07T14:01:27.079Z,99793.39
2023-04-07T14:03:59.213Z,99788.16
2023-04-07T14:06:29.608Z,99784.98
2023-04-07T14:08:58.701Z,99790.02
2023-04-07T14:11:27.391Z,99789.17
2023-04-07T14:13:58.878Z,99792.48
2023-04-07T14:16:28.844Z,99792.71
2023-04-07T14:18:57.329Z,99791.89
2023-04-07T14:21:29.667Z,99797.37
2023-04-07T14:23:58.254Z,99796.45
2023-04-07T14:26:27.284Z,99798.80
2023-04-07T14:28:56.046Z,99799.13
2023-04-07T14:31:24.461Z,99801.57
2023-04-07T14:33:52.990Z,99798.88
2023-04-07T14:36:22.181Z,99798.71
2023-04-07T14:38:51.184Z,99799.02
2023-04-07T14:41:20.401Z,99801.28
2023-04-07T14:43:52.993Z,99802.38
2023-04-07T14:46:27.604Z,99799.69
2023-04-07T14:48:58.607Z,99798.94
2023-04-07T14:51:27.650Z,99795.00
2023-04-07T14:53:57.857Z,99797.29
2023-04-07T14:56:26.567Z,99799.06
2023-04-07T14:58:55.634Z,99797.36
2023-04-07T15:01:24.316Z,99797.59
2023-04-07T15:03:53.831Z,99796.85
2023-04-07T15:06:23.725Z,99801.73
2023-04-07T15:08:53.142Z,99798.77
2023-04-07T15:11:22.032Z,99796.09
2023-04-07T15:13:50.719Z,99791.86
2023-04-07T15:16:20.135Z,99794.72
2023-04-07T15:18:48.827Z,99795.29
2023-04-07T15:21:17.161Z,99796.44
2023-04-07T15:23:47.067Z,99802.27
2023-04-07T15:26:15.949Z,99802.51
2023-04-07T15:28:50.982Z,99800.77
2023-04-07T15:31:21.688Z,99797.47
2023-04-07T15:33:51.969Z,99797.61
2023-04-07T15:36:20.474Z,99799.23
2023-04-07T15:38:49.036Z,99796.73
2023-04-07T15:41:18.008Z,99798.02
2023-04-07T15:43:46.786Z,99799.91
2023-04-07T15:46:16.233Z,99800.38
2023-04-07T15:48:44.938Z,99800.45
2023-04-07T15:51:13.217Z,99802.16
2023-04-07T15:53:43.288Z,99803.29
2023-04-07T15:56:13.617Z,99803.06
2023-04-07T15:58:45.316Z,99800.49
2023-04-07T16:01:13.684Z,99801.66
2023-04-07T16:03:43.939Z,99802.27
2023-04-07T16:06:12.527Z,99806.31
2023-04-07T16:08:40.853Z,99804.54
2023-04-07T16:11:11.427Z,99809.10
2023-04-07T16:13:39.784Z,99808.61
2023-04-07T16:16:08.814Z,99808.74
2023-04-07T16:18:37.545Z,99809.59
2023-04-07T16:21:09.455Z,99812.70
2023-04-07T16:23:45.344Z,99814.86
2023-04-07T16:26:14.083Z,99815.07
2023-04-07T16:28:44.385Z,99822.95
2023-04-07T16:31:12.752Z,99824.63
2023-04-07T16:33:43.193Z,99825.15
2023-04-07T16:36:11.842Z,99828.23
2023-04-07T16:38:41.713Z,99826.87
2023-04-07T16:41:10.229Z,99834.86
2023-04-07T16:43:42.709Z,99831.85
2023-04-07T16:46:11.254Z,99837.60
2023-04-07T16:48:40.190Z,99834.38
2023-04-07T16:51:09.095Z,99834.37
2023-04-07T16:53:37.516Z,99837.45
2023-04-07T16:56:06.637Z,99836.75
2023-04-07T16:58:38.043Z,99839.52
2023-04-07T17:01:06.439Z,99841.79
2023-04-07T17:03:37.585Z,99852.45
2023-04-07T17:06:06.484Z,99863.33
2023-04-07T17:08:36.565Z,99871.13
2023-04-07T17:11:08.853Z,99882.80
2023-04-07T17:13:37.891Z,99888.25
2023-04-07T17:16:10.589Z,99894.90
2023-04-07T17:18:39.774Z,99892.85
2023-04-07T17:21:08.206Z,99896.61
2023-04-07T17:23:43.040Z,99899.57
2023-04-07T17:26:11.368Z,99895.00
2023-04-07T17:28:39.595Z,99897.33
2023-04-07T17:31:08.608Z,99903.06
2023-04-07T17:33:38.152Z,99911.96
2023-04-07T17:36:07.063Z,99906.47
2023-04-07T17:38:35.557Z,99911.92
2023-04-07T17:41:04.623Z,99918.53
2023-04-07T17:43:34.107Z,99924.89
2023-04-07T17:46:04.868Z,99926.31
2023-04-07T17:48:34.506Z,99931.57
2023-04-07T17:51:04.275Z,99936.65
2023-04-07T17:53:33.135Z,99940.56
2023-04-07T17:56:01.752Z,99945.09
2023-04-07T17:58:30.654Z,99943.73
2023-04-07T18:00:59.559Z,99947.34
2023-04-07T18:03:29.149Z,99949.86
2023-04-07T18:05:57.828Z,99951.05
2023-04-07T18:08:26.520Z,99948.77
2023-04-07T18:11:07.550Z,99947.77
2023-04-07T18:13:38.747Z,99950.02
2023-04-07T18:16:12.083Z,99949.44
2023-04-07T18:18:43.981Z,99954.45
2023-04-07T18:21:12.412Z,99951.06
2023-04-07T18:23:41.151Z,99949.80
2023-04-07T18:26:09.894Z,99953.44
2023-04-07T18:28:38.654Z,99956.80
2023-04-07T18:31:08.069Z,99957.34
2023-04-07T18:33:37.568Z,99955.41
2023-04-07T18:36:07.544Z,99962.41
2023-04-07T18:38:39.208Z,99964.52
2023-04-07T18:41:07.637Z,99963.02
2023-04-07T18:43:39.565Z,99960.16
2023-04-07T18:46:08.202Z,99959.92
2023-04-07T18:48:36.973Z,99963.03
2023-04-07T18:51:07.812Z,99961.40
2023-04-07T18:53:36.521Z,99964.32
2023-04-07T18:56:05.826Z,99960.11
2023-04-07T18:58:35.920Z,99956.98
2023-04-07T19:01:04.346Z,99955.81
2023-04-07T19:03:34.713Z,99954.54
2023-04-07T19:06:03.328Z,99957.98
2023-04-07T19:11:29.545Z,99967.83
2023-04-07T19:13:57.925Z,99966.27
2023-04-07T19:16:27.749Z,99968.83
2023-04-07T19:18:57.685Z,99963.53
2023-04-07T19:21:26.636Z,99964.90
2023-04-07T19:23:56.646Z,99960.77
2023-04-07T19:26:26.206Z,99960.00
2023-04-07T19:31:46.158Z,99966.64
2023-04-07T19:34:14.592Z,99967.76
2023-04-07T19:36:43.030Z,99968.44
2023-04-07T19:39:11.946Z,99962.88
2023-04-07T19:41:42.271Z,99964.81
2023-04-07T19:44:11.600Z,99963.95
2023-04-07T19:46:41.393Z,99963.92
2023-04-07T19:49:10.207Z,99963.34
2023-04-07T19:51:38.756Z,99961.77
2023-04-07T19:54:08.432Z,99961.06
2023-04-07T19:56:37.771Z,99956.66
2023-04-07T19:59:09.903Z,99955.79
2023-04-07T20:01:38.482Z,99958.19
2023-04-07T20:04:07.339Z,99961.07
2023-04-07T20:06:36.908Z,99961.71
2023-04-07T20:09:05.577Z,99962.30
2023-04-07T20:11:33.980Z,99964.95
2023-04-07T20:14:04.900Z,99966.42
2023-04-07T20:16:33.858Z,99967.48
2023-04-07T20:19:03.379Z,99973.30
2023-04-07T20:21:32.575Z,99977.30
2023-04-07T20:24:01.318Z,99976.98
2023-04-07T20:26:29.903Z,99976.21
2023-04-07T20:28:58.617Z,99975.95
2023-04-07T20:31:27.406Z,99973.86
2023-04-07T20:33:55.969Z,99971.16
2023-04-07T20:36:26.626Z,99970.02
2023-04-07T20:38:55.255Z,99975.80
2023-04-07T20:41:24.976Z,99973.58
2023-04-07T20:43:55.177Z,99971.47
2023-04-07T20:46:23.563Z,99969.23
2023-04-07T20:48:53.141Z,99970.09
2023-04-07T20:51:22.341Z,99969.73
2023-04-07T20:53:51.516Z,99968.09
2023-04-07T20:56:21.815Z,99967.64
2023-04-07T20:58:54.269Z,99965.92
2023-04-07T21:01:23.135Z,99963.26
2023-04-07T21:03:53.101Z,99962.19
2023-04-07T21:06:21.700Z,99958.73
2023-04-07T21:08:51.925Z,99957.51
2023-04-07T21:11:21.936Z,99961.80
2023-04-07T21:13:50.581Z,99969.75
2023-04-07T21:16:19.354Z,99969.15
2023-04-07T21:18:48.873Z,99966.80
2023-04-07T21:21:18.224Z,99968.97
2023-04-07T21:23:46.761Z,99969.44
2023-04-07T21:26:15.777Z,99969.43
2023-04-07T21:28:46.209Z,99969.77
2023-04-07T21:31:22.618Z,99966.73
2023-04-07T21:33:51.728Z,99965.48
2023-04-07T21:36:20.851Z,99963.00
2023-04-07T21:38:51.007Z,99962.96
2023-04-07T21:41:21.321Z,99959.86
2023-04-07T21:43:49.785Z,99961.00
2023-04-07T21:46:18.288Z,99959.35
2023-04-07T21:48:48.498Z,99962.22
2023-04-07T21:51:17.588Z,99960.76
2023-04-07T21:53:45.918Z,99961.39
2023-04-07T21:56:14.591Z,99962.88
2023-04-07T21:58:47.407Z,99961.36
2023-04-07T22:01:17.693Z,99963.61
2023-04-07T22:03:47.644Z,99957.98
2023-04-07T22:06:15.984Z,99959.44
2023-04-07T22:08:54.944Z,99961.06
2023-04-07T22:11:30.011Z,99957.80
2023-04-07T22:13:59.073Z,99960.98
2023-04-07T22:16:27.762Z,99961.86
2023-04-07T22:19:00.912Z,99961.73
2023-04-07T22:21:30.080Z,99962.48
2023-04-07T22:23:58.515Z,99962.70
2023-04-07T22:26:28.306Z,99963.98
2023-04-07T22:28:56.861Z,99962.60
2023-04-07T22:31:25.564Z,99958.95
2023-04-07T22:33:53.938Z,99955.46
2023-04-07T22:36:22.450Z,99955.63
2023-04-07T22:38:52.996Z,99953.41
2023-04-07T22:41:21.759Z,99945.79
2023-04-07T22:43:50.091Z,99948.25
2023-04-07T22:46:18.573Z,99947.69
2023-04-07T22:48:47.254Z,99947.16
2023-04-07T22:51:17.952Z,99946.84
2023-04-07T22:53:46.386Z,99949.42
2023-04-07T22:56:19.780Z,99949.02
2023-04-07T22:58:49.662Z,99949.69
2023-04-07T23:01:18.073Z,99953.34
2023-04-07T23:03:47.784Z,99954.25
2023-04-07T23:06:16.352Z,99951.67
2023-04-07T23:08:45.687Z,99949.61
2023-04-07T23:11:16.797Z,99945.28
2023-04-07T23:13:46.008Z,99941.24
2023-04-07T23:16:15.672Z,99935.15
2023-04-07T23:18:47.655Z,99929.86
2023-04-07T23:21:16.385Z,99928.60
2023-04-07T23:23:45.356Z,99923.84
2023-04-07T23:26:13.840Z,99921.74
2023-04-07T23:28:42.454Z,99920.66
2023-04-07T23:31:11.754Z,99923.36
2023-04-07T23:33:40.685Z,99924.56
2023-04-07T23:36:09.588Z,99920.94
2023-04-07T23:38:39.758Z,99921.34
2023-04-07T23:41:08.813Z,99926.35
2023-04-07T23:43:37.807Z,99928.71
2023-04-07T23:46:06.426Z,99920.80
2023-04-07T23:48:38.209Z,99914.33
2023-04-07T23:51:06.667Z,99913.11
2023-04-07T23:53:35.015Z,99914.06
2023-04-07T23:56:04.961Z,99920.31
2023-04-07T23:58:33.572Z,99918.15
